Weer

Current Metar

EHAM: EHAM 170525Z 22009KT CAVOK 13/10 Q1020 NOSIG
EHRD: EHRD 170525Z AUTO 22008KT 160V250 9999 NSC 13/10 Q1020 NOSIG
EHGG: EHGG 170525Z AUTO 21009KT 9999 NCD 13/10 Q1018 NOSIG
EHEH: EHEH 170525Z AUTO 19003KT 9999 FEW075 12/11 Q1021 BLU 20005KT 9999 FEW017 SCT060 TEMPO SCT017
EHBK: EHBK 170525Z AUTO 20004KT 9999 BKN017 OVC021 14/13 Q1022 NOSIG

Search METAR


Wind Charts

+ 0600h
FL100 FL180 FL240 FL300 FL340

+ 1200h
FL100 FL180 FL240 FL300 FL340

+ 1800h
FL100 FL180 FL240 FL300 FL340

+ 2400h
FL100 FL180 FL240 FL300 FL340

Europe & Africa charts only, updated daily.

 

Weather Services

MET Office